KAPA

Centennial Airport

Denver, Colorado, USA
METAR KAPA 151253Z 20010KT 10SM CLR M03/M13 A3005 RMK AO2 SLP215 T10281133
Observed Flight Rules
Dec-15 @ 12:53 UTC (58 minutes ago) Visual Flight Rules
Wind Visibility Clouds
200° at 10 knots 10 miles
  • Clear skies
Temperatures Readings
Current -3°C / 27°F
Dewpoint -13°C / 9°F
Humidity 46%
Altimeter 30.05" Hg
Pressure 1021.5 hPa
Elevation 1775
METAR KAPA 151253Z 20010KT 10SM CLR M03/M13 A3005 RMK AO2 SLP215 T10281133
Observed Flight Rules
Dec-15 @ 12:53 UTC
(58 minutes ago)
VFR
Wind Visibility
200° at 10 knots 10 miles
Clouds
  • Clear skies
Temperature Dewpoint
-3°C / 27°F -13°C / 9°F
Humidity Altimeter Pressure
46% 30.05" Hg 1021.5 hPa